createdAt,value
2017-12-21T00:01:46.460Z,41.13
2017-12-21T00:04:14.512Z,33.13
2017-12-21T00:06:43.404Z,33.50
2017-12-21T00:09:11.463Z,38.63
2017-12-21T00:11:40.302Z,32.70
2017-12-21T00:14:08.600Z,44.30
2017-12-21T00:16:36.663Z,49.33
2017-12-21T00:19:04.687Z,35.63
2017-12-21T00:21:33.639Z,37.07
2017-12-21T00:24:01.686Z,40.30
2017-12-21T00:26:29.709Z,39.63
2017-12-21T00:28:58.575Z,42.37
2017-12-21T00:31:26.642Z,39.93
2017-12-21T00:33:54.698Z,45.83
2017-12-21T00:36:22.879Z,39.90
2017-12-21T00:38:50.935Z,41.13
2017-12-21T00:41:19.012Z,40.20
2017-12-21T00:43:47.155Z,36.57
2017-12-21T00:46:15.951Z,39.03
2017-12-21T00:48:44.007Z,46.10
2017-12-21T00:51:12.940Z,36.60
2017-12-21T00:53:40.991Z,38.43
2017-12-21T00:56:09.199Z,37.00
2017-12-21T00:58:37.374Z,37.40
2017-12-21T01:01:05.435Z,39.00
2017-12-21T01:03:33.496Z,37.00
2017-12-21T01:06:01.630Z,45.23
2017-12-21T01:08:29.663Z,36.17
2017-12-21T01:10:57.682Z,41.90
2017-12-21T01:13:26.615Z,54.23
2017-12-21T01:15:55.476Z,37.37
2017-12-21T01:18:24.287Z,46.33
2017-12-21T01:20:52.479Z,40.93
2017-12-21T01:23:20.527Z,44.07
2017-12-21T01:25:48.575Z,50.43
2017-12-21T01:28:17.463Z,35.10
2017-12-21T01:30:45.523Z,36.43
2017-12-21T01:33:13.576Z,34.70
2017-12-21T01:35:41.743Z,39.10
2017-12-21T01:38:09.796Z,40.03
2017-12-21T01:40:37.867Z,43.13
2017-12-21T01:43:06.187Z,39.37
2017-12-21T01:45:34.207Z,35.27
2017-12-21T01:48:02.287Z,43.97
2017-12-21T01:50:30.458Z,35.47
2017-12-21T01:52:58.478Z,38.70
2017-12-21T01:55:26.572Z,39.33
2017-12-21T01:57:54.867Z,42.40
2017-12-21T02:00:23.704Z,41.30
2017-12-21T02:02:51.726Z,39.90
2017-12-21T02:05:20.632Z,44.20
2017-12-21T02:07:48.662Z,41.47
2017-12-21T02:10:16.763Z,43.10
2017-12-21T02:12:45.687Z,44.73
2017-12-21T02:15:13.698Z,43.33
2017-12-21T02:17:41.776Z,40.03
2017-12-21T02:20:10.084Z,43.87
2017-12-21T02:22:39.112Z,45.00
2017-12-21T02:25:07.391Z,47.30
2017-12-21T02:27:35.831Z,45.40
2017-12-21T02:30:04.811Z,42.20
2017-12-21T02:32:33.083Z,45.03
2017-12-21T02:35:01.419Z,39.67
2017-12-21T02:37:29.678Z,47.23
2017-12-21T02:39:57.828Z,42.93
2017-12-21T02:42:26.952Z,46.43
2017-12-21T02:44:55.195Z,46.80
2017-12-21T02:47:23.370Z,43.37
2017-12-21T02:49:51.615Z,48.53
2017-12-21T02:52:19.808Z,45.03
2017-12-21T02:54:47.928Z,46.87
2017-12-21T02:57:16.200Z,49.57
2017-12-21T02:59:45.159Z,43.47
2017-12-21T03:02:13.260Z,45.17
2017-12-21T03:04:42.325Z,46.00
2017-12-21T03:07:10.415Z,46.20
2017-12-21T03:09:38.504Z,53.70
2017-12-21T03:12:07.552Z,49.70
2017-12-21T03:14:35.709Z,44.93
2017-12-21T03:17:03.780Z,51.33
2017-12-21T03:19:31.934Z,47.20
2017-12-21T03:21:59.958Z,48.37
2017-12-21T03:24:28.048Z,49.70
2017-12-21T03:26:56.255Z,47.43
2017-12-21T03:29:24.375Z,60.67
2017-12-21T03:31:52.418Z,50.20
2017-12-21T03:34:20.594Z,48.13
2017-12-21T03:36:48.686Z,45.53
2017-12-21T03:39:16.739Z,48.50
2017-12-21T03:41:44.916Z,43.83
2017-12-21T03:44:12.963Z,42.20
2017-12-21T03:46:41.890Z,43.40
2017-12-21T03:49:10.027Z,43.90
2017-12-21T03:51:38.939Z,46.17
2017-12-21T03:54:07.003Z,44.13
2017-12-21T03:56:35.284Z,44.13
2017-12-21T03:59:03.327Z,41.37
2017-12-21T04:01:32.219Z,44.30
2017-12-21T04:04:01.138Z,44.37
2017-12-21T04:06:29.266Z,45.67
2017-12-21T04:08:57.374Z,44.17
2017-12-21T04:11:26.271Z,46.57
2017-12-21T04:13:55.077Z,48.47
2017-12-21T04:16:23.399Z,52.27
2017-12-21T04:18:51.547Z,50.33
2017-12-21T04:21:19.571Z,49.93
2017-12-21T04:23:48.359Z,55.97
2017-12-21T04:26:17.299Z,50.13
2017-12-21T04:28:45.498Z,51.30
2017-12-21T04:31:13.531Z,52.27
2017-12-21T04:33:41.667Z,52.63
2017-12-21T04:36:09.751Z,56.90
2017-12-21T04:38:38.519Z,55.33
2017-12-21T04:41:06.769Z,55.43
2017-12-21T04:43:34.842Z,52.67
2017-12-21T04:46:03.008Z,53.33
2017-12-21T04:48:31.200Z,63.93
2017-12-21T04:50:59.227Z,64.50
2017-12-21T04:53:28.031Z,58.50
2017-12-21T04:55:56.190Z,59.90
2017-12-21T04:58:25.003Z,73.77
2017-12-21T05:00:54.035Z,58.83
2017-12-21T05:03:22.362Z,54.03
2017-12-21T05:05:50.471Z,56.40
2017-12-21T05:08:18.544Z,63.47
2017-12-21T05:10:46.723Z,61.70
2017-12-21T05:13:14.935Z,52.87
2017-12-21T05:15:43.763Z,60.93
2017-12-21T05:18:11.931Z,58.60
2017-12-21T05:20:40.020Z,53.60
2017-12-21T05:23:08.042Z,54.17
2017-12-21T05:25:36.169Z,54.60
2017-12-21T05:28:04.199Z,57.10
2017-12-21T05:30:32.955Z,52.07
2017-12-21T05:33:01.130Z,65.27
2017-12-21T05:35:29.151Z,68.60
2017-12-21T05:37:57.200Z,45.23
2017-12-21T05:40:26.119Z,43.57
2017-12-21T05:42:54.163Z,46.03
2017-12-21T05:45:22.207Z,65.67
2017-12-21T05:47:50.376Z,63.33
2017-12-21T05:50:18.443Z,55.20
2017-12-21T05:52:46.535Z,57.23
2017-12-21T05:55:14.739Z,45.00
2017-12-21T05:57:43.568Z,35.17
2017-12-21T06:00:11.900Z,33.87
2017-12-21T06:02:40.075Z,36.90
2017-12-21T06:05:08.151Z,45.97
2017-12-21T06:07:36.171Z,36.83
2017-12-21T06:10:04.479Z,33.87
2017-12-21T06:12:32.490Z,28.87
2017-12-21T06:15:01.255Z,28.10
2017-12-21T06:17:29.398Z,25.63
2017-12-21T06:19:57.456Z,30.50
2017-12-21T06:22:25.490Z,31.57
2017-12-21T06:24:54.396Z,25.27
2017-12-21T06:27:22.443Z,23.93
2017-12-21T06:29:50.455Z,23.50
2017-12-21T06:32:18.620Z,20.47
2017-12-21T06:34:46.630Z,24.57
2017-12-21T06:37:14.684Z,25.20
2017-12-21T06:39:42.852Z,21.40
2017-12-21T06:42:10.896Z,22.50
2017-12-21T06:44:39.670Z,27.47
2017-12-21T06:47:07.909Z,25.77
2017-12-21T06:49:35.972Z,27.33
2017-12-21T06:52:04.035Z,42.73
2017-12-21T06:54:32.206Z,30.67
2017-12-21T06:57:00.274Z,30.87
2017-12-21T06:59:28.328Z,22.77
2017-12-21T07:01:57.207Z,22.60
2017-12-21T07:04:26.005Z,26.23
2017-12-21T07:06:54.923Z,22.60
2017-12-21T07:09:23.107Z,18.63
2017-12-21T07:11:51.122Z,15.53
2017-12-21T07:14:19.139Z,17.10
2017-12-21T07:16:47.274Z,14.83
2017-12-21T07:19:15.299Z,14.60
2017-12-21T07:21:43.355Z,19.13
2017-12-21T07:24:11.491Z,27.73
2017-12-21T07:26:39.643Z,15.50
2017-12-21T07:29:07.662Z,14.33
2017-12-21T07:31:35.848Z,15.10
2017-12-21T07:34:03.894Z,14.67
2017-12-21T07:36:32.646Z,15.27
2017-12-21T07:39:00.828Z,18.20
2017-12-21T07:41:28.851Z,16.63
2017-12-21T07:43:57.615Z,14.73
2017-12-21T07:46:25.866Z,17.70
2017-12-21T07:48:53.896Z,17.50
2017-12-21T07:51:22.063Z,15.90
2017-12-21T07:53:50.959Z,14.80
2017-12-21T07:56:19.796Z,15.57
2017-12-21T07:58:47.843Z,16.53
2017-12-21T08:01:16.862Z,16.30
2017-12-21T08:03:44.912Z,18.30
2017-12-21T08:06:12.931Z,14.40
2017-12-21T08:08:41.252Z,19.87
2017-12-21T08:11:09.274Z,16.40
2017-12-21T08:13:37.292Z,22.27
2017-12-21T08:16:05.459Z,18.00
2017-12-21T08:18:33.583Z,15.60
2017-12-21T08:21:01.606Z,15.47
2017-12-21T08:23:29.734Z,15.73
2017-12-21T08:25:57.916Z,19.33
2017-12-21T08:28:25.951Z,18.13
2017-12-21T08:30:54.132Z,16.77
2017-12-21T08:33:22.192Z,18.93
2017-12-21T08:35:50.251Z,16.63
2017-12-21T08:38:18.399Z,14.60
2017-12-21T08:40:47.175Z,14.20
2017-12-21T08:43:15.216Z,17.00
2017-12-21T08:45:43.384Z,13.83
2017-12-21T08:48:11.491Z,15.73
2017-12-21T08:50:39.507Z,13.93
2017-12-21T08:53:07.676Z,11.97
2017-12-21T08:55:36.438Z,11.00
2017-12-21T08:58:04.491Z,16.63
2017-12-21T09:00:32.616Z,13.80
2017-12-21T09:03:00.663Z,15.87
2017-12-21T09:05:29.490Z,20.07
2017-12-21T09:07:57.669Z,16.50
2017-12-21T09:10:25.827Z,17.67
2017-12-21T09:12:53.923Z,14.83
2017-12-21T09:15:22.118Z,19.10
2017-12-21T09:17:50.134Z,16.73
2017-12-21T09:20:18.931Z,17.37
2017-12-21T09:22:47.919Z,17.13
2017-12-21T09:25:16.682Z,21.40
2017-12-21T09:27:44.760Z,18.13
2017-12-21T09:30:13.008Z,19.00
2017-12-21T09:32:41.064Z,16.30
2017-12-21T09:35:09.228Z,20.17
2017-12-21T09:37:37.434Z,16.73
2017-12-21T09:40:05.539Z,18.47
2017-12-21T09:42:33.818Z,21.50
2017-12-21T09:45:01.992Z,18.73
2017-12-21T09:47:30.015Z,19.23
2017-12-21T09:49:58.067Z,18.90
2017-12-21T09:52:26.222Z,16.40
2017-12-21T09:54:55.020Z,15.97
2017-12-21T09:57:23.820Z,15.10
2017-12-21T09:59:52.026Z,16.13
2017-12-21T10:02:20.084Z,15.27
2017-12-21T10:04:48.123Z,14.33
2017-12-21T10:07:17.032Z,17.43
2017-12-21T10:09:45.791Z,16.20
2017-12-21T10:12:13.980Z,19.77
2017-12-21T10:14:42.916Z,16.40
2017-12-21T10:17:10.968Z,167.70
2017-12-21T10:19:38.983Z,16.63
2017-12-21T10:22:07.197Z,16.70
2017-12-21T10:24:35.971Z,18.70
2017-12-21T10:27:04.051Z,19.60
2017-12-21T10:29:32.997Z,29.13
2017-12-21T10:32:01.015Z,23.03
2017-12-21T10:34:29.051Z,25.03
2017-12-21T10:36:57.227Z,26.43
2017-12-21T10:39:25.254Z,28.57
2017-12-21T10:41:54.019Z,24.93
2017-12-21T10:44:22.196Z,25.47
2017-12-21T10:46:50.255Z,23.43
2017-12-21T10:49:18.320Z,26.57
2017-12-21T10:51:46.462Z,20.43
2017-12-21T10:54:14.507Z,22.27
2017-12-21T10:56:43.311Z,27.03
2017-12-21T10:59:11.514Z,20.77
2017-12-21T11:01:39.564Z,21.70
2017-12-21T11:04:07.596Z,19.17
2017-12-21T11:06:35.787Z,16.43
2017-12-21T11:09:04.912Z,19.23
2017-12-21T11:11:32.974Z,12.60
2017-12-21T11:14:01.301Z,12.13
2017-12-21T11:16:29.362Z,13.07
2017-12-21T11:18:57.401Z,16.70
2017-12-21T11:21:25.616Z,12.03
2017-12-21T11:23:53.766Z,11.17
2017-12-21T11:26:21.897Z,13.33
2017-12-21T11:28:50.949Z,11.80
2017-12-21T11:31:19.007Z,12.27
2017-12-21T11:33:47.062Z,11.80
2017-12-21T11:36:15.280Z,12.57
2017-12-21T11:38:43.342Z,12.50
2017-12-21T11:41:11.362Z,11.27
2017-12-21T11:43:40.276Z,12.87
2017-12-21T11:46:08.404Z,11.67
2017-12-21T11:48:36.427Z,12.93
2017-12-21T11:51:04.559Z,12.53
2017-12-21T11:53:32.612Z,13.20
2017-12-21T11:56:00.688Z,13.10
2017-12-21T11:58:28.848Z,13.30
2017-12-21T12:00:56.900Z,13.77
2017-12-21T12:03:25.148Z,12.73
2017-12-21T12:05:54.126Z,12.83
2017-12-21T12:08:22.192Z,13.10
2017-12-21T12:10:50.215Z,13.10
2017-12-21T12:26:17.675Z,12.20
2017-12-21T12:28:45.801Z,13.73
2017-12-21T12:31:13.864Z,13.20
2017-12-21T12:33:42.068Z,13.80
2017-12-21T12:36:10.866Z,12.07
2017-12-21T12:38:39.660Z,12.57
2017-12-21T12:41:07.840Z,13.20
2017-12-21T12:43:35.871Z,12.37
2017-12-21T12:46:04.177Z,13.93
2017-12-21T12:48:33.232Z,13.60
2017-12-21T12:51:01.376Z,16.90
2017-12-21T12:53:29.402Z,13.27
2017-12-21T12:55:58.369Z,11.97
2017-12-21T12:58:26.467Z,11.23
2017-12-21T13:00:54.531Z,11.03
2017-12-21T13:03:22.663Z,11.83
2017-12-21T13:05:50.728Z,12.80
2017-12-21T13:08:18.779Z,11.37
2017-12-21T13:10:47.772Z,11.87
2017-12-21T13:13:16.584Z,12.10
2017-12-21T13:15:44.613Z,12.57
2017-12-21T13:18:12.803Z,11.73
2017-12-21T13:20:41.562Z,14.63
2017-12-21T13:23:09.612Z,12.10
2017-12-21T13:25:37.790Z,18.23
2017-12-21T13:28:05.996Z,14.33
2017-12-21T13:30:34.044Z,14.80
2017-12-21T13:33:02.216Z,15.50
2017-12-21T13:35:30.235Z,14.60
2017-12-21T13:37:59.024Z,15.00
2017-12-21T13:40:27.928Z,15.10
2017-12-21T13:42:55.959Z,14.80
2017-12-21T13:45:23.975Z,15.27
2017-12-21T13:47:52.152Z,15.00
2017-12-21T13:50:20.155Z,15.70
2017-12-21T13:52:48.209Z,15.07
2017-12-21T13:55:16.355Z,14.13
2017-12-21T13:57:45.134Z,14.33
2017-12-21T14:00:14.095Z,15.40
2017-12-21T14:02:42.484Z,15.20
2017-12-21T14:05:10.571Z,14.30
2017-12-21T14:07:38.600Z,14.20
2017-12-21T14:10:06.776Z,15.03
2017-12-21T14:12:34.836Z,15.53
2017-12-21T14:15:02.897Z,14.77
2017-12-21T14:17:31.042Z,14.60
2017-12-21T14:19:59.096Z,15.77
2017-12-21T14:22:27.115Z,15.87
2017-12-21T14:24:55.267Z,13.57
2017-12-21T14:27:24.076Z,13.90
2017-12-21T14:29:52.328Z,16.40
2017-12-21T14:32:20.467Z,14.50
2017-12-21T14:34:48.520Z,14.63
2017-12-21T14:37:16.550Z,14.63
2017-12-21T14:39:44.711Z,14.50
2017-12-21T14:42:12.735Z,13.97
2017-12-21T14:44:40.750Z,17.63
2017-12-21T14:47:09.049Z,16.50
2017-12-21T14:49:37.847Z,22.77
2017-12-21T14:52:06.644Z,15.10
2017-12-21T14:54:35.550Z,16.10
2017-12-21T14:57:03.609Z,16.30
2017-12-21T14:59:32.362Z,15.37
2017-12-21T15:02:00.516Z,15.73
2017-12-21T15:04:28.527Z,15.07
2017-12-21T15:06:56.639Z,16.43
2017-12-21T15:09:24.847Z,16.20
2017-12-21T15:11:52.867Z,22.00
2017-12-21T15:14:21.622Z,17.83
2017-12-21T15:16:49.804Z,18.23
2017-12-21T15:19:17.823Z,16.33
2017-12-21T15:21:45.879Z,19.13
2017-12-21T15:24:14.747Z,17.57
2017-12-21T15:26:42.868Z,20.33
2017-12-21T15:29:10.891Z,17.60
2017-12-21T15:31:39.203Z,22.33
2017-12-21T15:34:07.346Z,17.77
2017-12-21T15:36:36.136Z,18.90
2017-12-21T15:39:04.547Z,19.97
2017-12-21T15:41:32.616Z,17.80
2017-12-21T15:44:00.627Z,20.97
2017-12-21T15:46:28.836Z,21.37
2017-12-21T15:48:56.885Z,18.70
2017-12-21T15:51:24.932Z,21.33
2017-12-21T15:53:53.222Z,19.57
2017-12-21T15:56:21.279Z,20.50
2017-12-21T15:58:49.322Z,20.23
2017-12-21T16:01:18.207Z,20.13
2017-12-21T16:03:46.962Z,22.10
2017-12-21T16:06:15.139Z,20.13
2017-12-21T16:08:43.412Z,22.60
2017-12-21T16:11:11.591Z,20.00
2017-12-21T16:13:39.651Z,21.10
2017-12-21T16:16:08.030Z,20.00
2017-12-21T16:18:36.075Z,20.63
2017-12-21T16:21:04.131Z,23.47
2017-12-21T16:23:33.046Z,24.60
2017-12-21T16:26:01.133Z,25.03
2017-12-21T16:28:29.216Z,24.20
2017-12-21T16:30:57.358Z,24.40
2017-12-21T16:33:25.575Z,22.57
2017-12-21T16:35:53.795Z,22.57
2017-12-21T16:38:22.695Z,23.07
2017-12-21T16:40:50.727Z,23.80
2017-12-21T16:43:18.792Z,24.20
2017-12-21T16:45:46.995Z,24.53
2017-12-21T16:48:15.827Z,25.27
2017-12-21T16:50:43.987Z,25.43
2017-12-21T16:53:12.236Z,24.40
2017-12-21T16:55:41.126Z,27.17
2017-12-21T16:58:09.960Z,27.00
2017-12-21T17:00:38.151Z,25.70
2017-12-21T17:03:06.224Z,25.60
2017-12-21T17:05:34.323Z,25.97
2017-12-21T17:08:02.475Z,25.50
2017-12-21T17:10:30.503Z,26.27
2017-12-21T17:12:59.319Z,25.77
2017-12-21T17:15:27.552Z,25.30
2017-12-21T17:17:56.399Z,27.00
2017-12-21T17:20:24.484Z,24.60
2017-12-21T17:22:52.668Z,24.63
2017-12-21T17:25:20.747Z,26.70
2017-12-21T17:27:48.820Z,30.50
2017-12-21T17:30:16.965Z,28.70
2017-12-21T17:32:45.038Z,30.90
2017-12-21T17:35:13.219Z,27.73
2017-12-21T17:37:41.415Z,30.37
2017-12-21T17:40:09.558Z,30.57
2017-12-21T17:42:37.653Z,32.40
2017-12-21T17:45:06.688Z,40.27
2017-12-21T17:47:35.516Z,33.83
2017-12-21T17:50:03.628Z,31.27
2017-12-21T17:52:31.812Z,26.83
2017-12-21T17:54:59.855Z,25.73
2017-12-21T17:57:27.948Z,25.33
2017-12-21T17:59:56.127Z,26.80
2017-12-21T18:02:24.211Z,27.77
2017-12-21T18:04:53.203Z,27.90
2017-12-21T18:07:21.432Z,27.87
2017-12-21T18:09:49.516Z,30.60
2017-12-21T18:12:17.612Z,29.97
2017-12-21T18:14:45.791Z,32.73
2017-12-21T18:17:13.855Z,36.30
2017-12-21T18:19:41.899Z,32.27
2017-12-21T18:22:10.086Z,31.83
2017-12-21T18:24:38.940Z,32.77
2017-12-21T18:27:07.723Z,28.70
2017-12-21T18:29:36.621Z,39.50
2017-12-21T18:32:05.554Z,42.20
2017-12-21T18:34:33.598Z,49.27
2017-12-21T18:37:02.016Z,52.43
2017-12-21T18:39:30.099Z,49.40
2017-12-21T18:41:58.195Z,46.10
2017-12-21T18:44:27.119Z,37.57
2017-12-21T18:46:55.176Z,48.17
2017-12-21T18:49:23.947Z,41.10
2017-12-21T18:51:52.128Z,39.90
2017-12-21T18:54:31.722Z,51.97
2017-12-21T18:56:59.893Z,39.93
2017-12-21T18:59:27.927Z,49.97
2017-12-21T19:01:56.775Z,49.40
2017-12-21T19:04:25.123Z,41.73
2017-12-21T19:06:53.213Z,35.70
2017-12-21T19:09:21.287Z,42.83
2017-12-21T19:11:49.504Z,48.30
2017-12-21T19:14:17.627Z,41.93
2017-12-21T19:16:45.710Z,37.00
2017-12-21T19:19:13.881Z,38.43
2017-12-21T19:21:41.950Z,48.90
2017-12-21T19:24:10.244Z,38.73
2017-12-21T19:26:38.463Z,42.23
2017-12-21T19:29:08.211Z,44.43
2017-12-21T19:31:36.271Z,45.60
2017-12-21T19:34:04.480Z,44.53
2017-12-21T19:36:32.527Z,50.93
2017-12-21T19:39:00.755Z,42.13
2017-12-21T19:41:28.920Z,42.10
2017-12-21T19:43:56.945Z,53.00
2017-12-21T19:46:25.037Z,43.03
2017-12-21T19:48:53.213Z,51.43
2017-12-21T19:51:21.303Z,45.90
2017-12-21T19:53:49.346Z,39.83
2017-12-21T19:56:17.692Z,39.77
2017-12-21T19:58:46.486Z,42.93
2017-12-21T20:01:15.274Z,58.37
2017-12-21T20:03:44.195Z,45.00
2017-12-21T20:06:12.323Z,41.80
2017-12-21T20:08:40.388Z,45.20
2017-12-21T20:11:08.592Z,42.87
2017-12-21T20:13:37.409Z,45.37
2017-12-21T20:16:05.435Z,53.93
2017-12-21T20:18:33.598Z,42.80
2017-12-21T20:21:01.643Z,40.13
2017-12-21T20:23:29.679Z,43.77
2017-12-21T20:25:58.659Z,57.03
2017-12-21T20:28:27.447Z,49.47
2017-12-21T20:30:56.223Z,50.20
2017-12-21T20:33:24.427Z,49.83
2017-12-21T20:35:53.210Z,46.83
2017-12-21T20:38:22.160Z,36.93
2017-12-21T20:40:50.560Z,38.70
2017-12-21T20:43:18.644Z,32.23
2017-12-21T20:45:46.732Z,37.90
2017-12-21T20:48:15.699Z,38.10
2017-12-21T20:50:43.760Z,36.80
2017-12-21T20:53:11.802Z,32.13
2017-12-21T20:55:40.047Z,34.07
2017-12-21T20:58:08.830Z,33.00
2017-12-21T21:00:37.708Z,46.50
2017-12-21T21:03:05.907Z,36.83
2017-12-21T21:05:34.809Z,45.33
2017-12-21T21:08:03.587Z,34.93
2017-12-21T21:10:32.575Z,37.20
2017-12-21T21:13:01.568Z,33.67
2017-12-21T21:15:30.505Z,33.20
2017-12-21T21:17:58.845Z,32.00
2017-12-21T21:20:27.788Z,38.57
2017-12-21T21:22:55.858Z,33.87
2017-12-21T21:25:24.003Z,39.20
2017-12-21T21:27:52.082Z,36.03
2017-12-21T21:30:20.152Z,33.80
2017-12-21T21:32:48.347Z,36.43
2017-12-21T21:35:16.411Z,37.40
2017-12-21T21:37:44.480Z,45.77
2017-12-21T21:40:12.715Z,29.30
2017-12-21T21:42:40.936Z,29.50
2017-12-21T21:45:09.032Z,38.93
2017-12-21T21:47:37.223Z,38.07
2017-12-21T21:50:05.292Z,32.87
2017-12-21T21:52:33.389Z,41.97
2017-12-21T21:55:01.568Z,42.33
2017-12-21T21:57:30.368Z,38.87
2017-12-21T21:59:59.124Z,37.77
2017-12-21T22:02:27.315Z,30.73
2017-12-21T22:04:55.392Z,38.80
2017-12-21T22:07:23.427Z,41.40
2017-12-21T22:09:51.748Z,27.40
2017-12-21T22:12:20.589Z,34.93
2017-12-21T22:14:48.635Z,28.47
2017-12-21T22:17:16.820Z,39.80
2017-12-21T22:19:44.880Z,33.33
2017-12-21T22:22:13.712Z,43.23
2017-12-21T22:24:41.879Z,35.40
2017-12-21T22:27:09.944Z,35.87
2017-12-21T22:29:38.034Z,43.00
2017-12-21T22:32:06.183Z,33.53
2017-12-21T22:34:34.355Z,34.80
2017-12-21T22:37:02.436Z,34.40
2017-12-21T22:39:30.616Z,30.67
2017-12-21T22:41:58.681Z,40.43
2017-12-21T22:44:26.928Z,37.10
2017-12-21T22:46:55.875Z,40.00
2017-12-21T22:49:23.951Z,31.60
2017-12-21T22:51:51.975Z,42.53
2017-12-21T22:54:20.889Z,34.17
2017-12-21T22:56:48.947Z,35.50
2017-12-21T22:59:17.015Z,37.33
2017-12-21T23:01:45.910Z,43.30
2017-12-21T23:04:13.960Z,34.77
2017-12-21T23:06:42.796Z,41.90
2017-12-21T23:09:10.994Z,39.87
2017-12-21T23:11:39.023Z,38.17
2017-12-21T23:14:07.291Z,37.20
2017-12-21T23:16:36.267Z,28.97
2017-12-21T23:19:05.049Z,40.47
2017-12-21T23:21:33.132Z,39.90
2017-12-21T23:24:02.095Z,47.67
2017-12-21T23:26:30.148Z,38.53
2017-12-21T23:28:58.175Z,30.77
2017-12-21T23:31:27.103Z,37.50
2017-12-21T23:33:55.170Z,34.87
2017-12-21T23:36:23.255Z,38.53
2017-12-21T23:38:51.502Z,37.33
2017-12-21T23:41:20.259Z,32.43
2017-12-21T23:43:48.324Z,34.47
2017-12-21T23:46:16.767Z,34.27
2017-12-21T23:48:44.843Z,35.97
2017-12-21T23:51:12.951Z,37.23
2017-12-21T23:53:41.204Z,32.37
2017-12-21T23:56:09.292Z,36.87
2017-12-21T23:58:37.340Z,33.63
